Terminal Aerodrome Forecast
Issued by NWS Detroit/Pontiac, MI

Home | Current Version | Previous Version | Text Only | Print | Product List | Glossary On
Versions: 1 2 3 4 5 6 7 8 9 10 11 12 13 14 15
000
FTUS43 KDTX 281726
TAFFNT
TAF
KFNT 281726Z 2818/2918 20006KT P6SM SCT120 BKN200
     FM290200 16010KT P6SM BKN080 OVC120
     FM290900 16013G20KT P6SM BKN045 OVC080
     FM291100 17014KT 2SM -SNPL BKN028 OVC040
     FM291400 21010KT 1 1/2SM -SN BR BKN008 OVC018=

USA.gov is the U.S. government's official web portal to all federal, state and local government web resources and services.